Time;durP1;ratioP1;P1;durP2;ratioP2;P2;SDS_P1;SDS_P2;PMS_P1;PMS_P2;Temp;Humidity;BMP_temperature;BMP_pressure;BME280_temperature;BME280_humidity;BME280_pressure;Samples;Min_cycle;Max_cycle;Signal;HPM_P1;HPM_P2
2021/06/05 00:01:05;;;;;;;;;;;;;;;;;;5053846;28;19909;-73
2021/06/05 00:03:30;;;;;;;;;;;;;;;;;;5053799;28;20014;-73
2021/06/05 00:05:57;;;;;;;;;;;;;;;;;;5053967;28;19932;-73
2021/06/05 00:08:23;;;;;;;;;;;;;;;;;;5052971;28;20453;-72
2021/06/05 00:10:49;;;;;;;;;;;;;;;;;;5053824;28;19909;-72
2021/06/05 00:13:15;;;;;;;;;;;;;;;;;;5053716;28;19915;-73
2021/06/05 00:15:41;;;;;;;;;;;;;;;;;;5052145;28;19916;-73
2021/06/05 00:18:07;;;;;;;;;;;;;;;;;;5053123;28;19909;-73
2021/06/05 00:20:33;;;;;;;;;;;;;;;;;;5053763;28;19955;-73
2021/06/05 00:22:59;;;;;;;;;;;;;;;;;;5053467;28;20286;-73
2021/06/05 00:25:25;;;;;;;;;;;;;;;;;;5053776;28;20322;-73
2021/06/05 00:27:50;;;;;;;;;;;;;;;;;;5052623;28;20348;-73
2021/06/05 00:30:16;;;;;;;;;;;;;;;;;;5053074;28;20356;-73
2021/06/05 00:32:42;;;;;;;;;;;;;;;;;;5053422;28;19909;-73
2021/06/05 00:35:08;;;;;;;;;;;;;;;;;;5052919;28;20286;-73
2021/06/05 00:37:34;;;;;;;;;;;;;;;;;;5053341;28;20279;-74
2021/06/05 00:40:00;;;;;;;;;;;;;;;;;;5053230;28;19920;-73
2021/06/05 00:42:26;;;;;;;;;;;;;;;;;;5052927;28;20022;-73
2021/06/05 00:44:52;;;;;;;;;;;;;;;;;;5053433;28;20007;-73
2021/06/05 00:47:18;;;;;;;;;;;;;;;;;;5052791;28;19928;-73
2021/06/05 00:49:44;;;;;;;;;;;;;;;;;;5052916;28;19913;-73
2021/06/05 00:52:10;;;;;;;;;;;;;;;;;;5051771;28;19909;-73
2021/06/05 00:54:35;;;;;;;;;;;;;;;;;;5052951;28;19921;-72
2021/06/05 00:57:01;;;;;;;;;;;;;;;;;;5052762;28;20373;-74
2021/06/05 00:59:27;;;;;;;;;;;;;;;;;;5052577;28;20007;-73
2021/06/05 01:01:53;;;;;;;;;;;;;;;;;;5052950;28;19999;-74
2021/06/05 01:04:19;;;;;;;;;;;;;;;;;;5051552;28;20021;-74
2021/06/05 01:06:46;;;;;;;;;;;;;;;;;;5052512;28;19909;-73
2021/06/05 01:09:12;;;;;;;;;;;;;;;;;;5052284;28;19909;-73
2021/06/05 01:11:38;;;;;;;;;;;;;;;;;;5052278;28;20267;-74
2021/06/05 01:14:04;;;;;;;;;;;;;;;;;;5052388;28;20406;-73
2021/06/05 01:16:30;;;;;;;;;;;;;;;;;;5052707;28;19909;-73
2021/06/05 01:18:56;;;;;;;;;;;;;;;;;;5052196;28;19967;-73
2021/06/05 01:21:22;;;;;;;;;;;;;;;;;;5052560;28;19909;-74
2021/06/05 01:23:48;;;;;;;;;;;;;;;;;;5052189;28;20244;-73
2021/06/05 01:26:14;;;;;;;;;;;;;;;;;;5052389;28;19955;-73
2021/06/05 01:28:40;;;;;;;;;;;;;;;;;;5052632;28;20004;-73
2021/06/05 01:31:05;;;;;;;;;;;;;;;;;;5050551;28;20343;-74
2021/06/05 01:33:31;;;;;;;;;;;;;;;;;;5051734;28;20373;-74
2021/06/05 01:35:57;;;;;;;;;;;;;;;;;;5052319;28;19916;-74
2021/06/05 01:38:23;;;;;;;;;;;;;;;;;;5051553;28;20043;-71
2021/06/05 01:40:49;;;;;;;;;;;;;;;;;;5051258;28;19915;-74
2021/06/05 01:43:15;;;;;;;;;;;;;;;;;;5052430;28;20265;-74
2021/06/05 01:45:41;;;;;;;;;;;;;;;;;;5051959;28;19909;-74
2021/06/05 01:48:07;;;;;;;;;;;;;;;;;;5051266;28;19921;-74
2021/06/05 01:50:33;;;;;;;;;;;;;;;;;;5051701;28;19913;-74
2021/06/05 01:52:59;;;;;;;;;;;;;;;;;;5051788;28;20376;-74
2021/06/05 01:55:24;;;;;;;;;;;;;;;;;;5051751;28;19963;-74
2021/06/05 01:57:50;;;;;;;;;;;;;;;;;;5051729;28;20007;-74
2021/06/05 02:00:16;;;;;;;;;;;;;;;;;;5051567;28;19909;-72
2021/06/05 02:02:42;;;;;;;;;;;;;;;;;;5051663;28;20366;-74
2021/06/05 02:05:08;;;;;;;;;;;;;;;;;;5051737;28;20015;-73
2021/06/05 02:07:34;;;;;;;;;;;;;;;;;;5051123;28;20347;-74
2021/06/05 02:10:00;;;;;;;;;;;;;;;;;;5051192;28;20015;-72
2021/06/05 02:12:26;;;;;;;;;;;;;;;;;;5051356;28;19941;-74
2021/06/05 02:14:53;;;;;;;;;;;;;;;;;;5051413;28;19909;-74
2021/06/05 02:17:18;;;;;;;;;;;;;;;;;;5051541;28;20244;-74
2021/06/05 02:19:44;;;;;;;;;;;;;;;;;;5050507;28;19931;-74
2021/06/05 02:22:12;;;;;;;;;;;;;;;;;;5051694;28;19909;-72
2021/06/05 02:24:38;;;;;;;;;;;;;;;;;;5051548;28;20007;-74
2021/06/05 02:27:03;;;;;;;;;;;;;;;;;;5051140;28;20016;-74
2021/06/05 02:29:29;;;;;;;;;;;;;;;;;;5050855;28;19909;-74
2021/06/05 02:31:55;;;;;;;;;;;;;;;;;;5049521;28;19913;-74
2021/06/05 02:34:21;;;;;;;;;;;;;;;;;;5049897;28;19916;-74
2021/06/05 02:36:47;;;;;;;;;;;;;;;;;;5050899;28;19955;-74
2021/06/05 02:39:13;;;;;;;;;;;;;;;;;;5051136;28;19913;-74
2021/06/05 02:41:39;;;;;;;;;;;;;;;;;;5050529;28;19917;-74
2021/06/05 02:44:05;;;;;;;;;;;;;;;;;;5050814;28;19909;-74
2021/06/05 02:46:30;;;;;;;;;;;;;;;;;;5051070;28;20540;-73
2021/06/05 02:48:56;;;;;;;;;;;;;;;;;;5051241;28;19920;-73
2021/06/05 02:51:22;;;;;;;;;;;;;;;;;;5050461;28;19936;-73
2021/06/05 02:53:48;;;;;;;;;;;;;;;;;;5050884;28;19921;-72
2021/06/05 02:56:14;;;;;;;;;;;;;;;;;;5051090;28;20347;-72
2021/06/05 02:58:40;;;;;;;;;;;;;;;;;;5050988;28;20020;-73
2021/06/05 03:01:06;;;;;;;;;;;;;;;;;;5050507;28;20347;-72
2021/06/05 03:03:32;;;;;;;;;;;;;;;;;;5050573;28;19951;-72
2021/06/05 03:05:58;;;;;;;;;;;;;;;;;;5050698;28;19965;-72
2021/06/05 03:08:24;;;;;;;;;;;;;;;;;;5050808;28;19913;-72
2021/06/05 03:10:50;;;;;;;;;;;;;;;;;;5050526;28;19944;-72
2021/06/05 03:13:16;;;;;;;;;;;;;;;;;;5050733;28;20323;-73
2021/06/05 03:15:42;;;;;;;;;;;;;;;;;;5050440;28;19909;-73
2021/06/05 03:18:08;;;;;;;;;;;;;;;;;;5050672;28;20228;-73
2021/06/05 03:20:34;;;;;;;;;;;;;;;;;;5050481;28;20055;-74
2021/06/05 03:22:59;;;;;;;;;;;;;;;;;;5050660;28;19909;-73
2021/06/05 03:25:25;;;;;;;;;;;;;;;;;;5050430;28;20058;-73
2021/06/05 03:27:51;;;;;;;;;;;;;;;;;;5049303;28;20276;-73
2021/06/05 03:30:17;;;;;;;;;;;;;;;;;;5048835;28;20264;-73
2021/06/05 03:32:43;;;;;;;;;;;;;;;;;;5050170;28;19921;-73
2021/06/05 03:35:09;;;;;;;;;;;;;;;;;;5050451;28;19909;-73
2021/06/05 03:37:35;;;;;;;;;;;;;;;;;;5050486;28;20286;-73
2021/06/05 03:40:01;;;;;;;;;;;;;;;;;;5050516;28;19909;-73
2021/06/05 03:42:27;;;;;;;;;;;;;;;;;;5049923;28;20385;-72
2021/06/05 03:44:56;;;;;;;;;;;;;;;;;;5050739;28;19991;-73
2021/06/05 03:47:22;;;;;;;;;;;;;;;;;;5050187;28;20256;-73
2021/06/05 03:49:48;;;;;;;;;;;;;;;;;;5048993;28;19995;-73
2021/06/05 03:52:14;;;;;;;;;;;;;;;;;;5050172;28;20497;-73
2021/06/05 03:54:40;;;;;;;;;;;;;;;;;;5050262;28;19924;-73
2021/06/05 03:57:06;;;;;;;;;;;;;;;;;;5050210;28;20343;-73
2021/06/05 03:59:32;;;;;;;;;;;;;;;;;;5050304;28;19909;-73
2021/06/05 04:01:58;;;;;;;;;;;;;;;;;;5050155;28;19997;-72
2021/06/05 04:04:24;;;;;;;;;;;;;;;;;;5053740;28;19978;-73
2021/06/05 04:06:50;;;;;;;;;;;;;;;;;;5053903;28;19909;-73
2021/06/05 04:09:16;;;;;;;;;;;;;;;;;;5054069;28;19958;-73
2021/06/05 04:11:42;;;;;;;;;;;;;;;;;;5053619;28;20386;-73
2021/06/05 04:14:10;;;;;;;;;;;;;;;;;;5053288;28;19924;-73
2021/06/05 04:16:36;;;;;;;;;;;;;;;;;;5053626;28;20382;-74
2021/06/05 04:19:01;;;;;;;;;;;;;;;;;;5053792;28;19909;-74
2021/06/05 04:21:27;;;;;;;;;;;;;;;;;;5053083;28;20450;-73
2021/06/05 04:23:53;;;;;;;;;;;;;;;;;;5053291;28;19915;-73
2021/06/05 04:26:19;;;;;;;;;;;;;;;;;;5053735;28;20058;-73
2021/06/05 04:28:45;;;;;;;;;;;;;;;;;;5053526;28;19913;-74
2021/06/05 04:31:11;;;;;;;;;;;;;;;;;;5053310;28;20355;-73
2021/06/05 04:33:37;;;;;;;;;;;;;;;;;;5052667;28;20006;-74
2021/06/05 04:36:03;;;;;;;;;;;;;;;;;;5053332;28;19963;-74
2021/06/05 04:38:29;;;;;;;;;;;;;;;;;;5053328;28;19938;-74
2021/06/05 04:40:55;;;;;;;;;;;;;;;;;;5053297;28;20244;-74
2021/06/05 04:43:20;;;;;;;;;;;;;;;;;;5052998;28;19908;-73
2021/06/05 04:45:46;;;;;;;;;;;;;;;;;;5052592;28;19923;-73
2021/06/05 04:48:12;;;;;;;;;;;;;;;;;;5052773;28;20321;-73
2021/06/05 04:50:38;;;;;;;;;;;;;;;;;;5053047;28;19962;-74
2021/06/05 04:53:04;;;;;;;;;;;;;;;;;;5052617;28;19921;-72
2021/06/05 04:55:30;;;;;;;;;;;;;;;;;;5052908;28;20263;-72
2021/06/05 04:57:56;;;;;;;;;;;;;;;;;;5053054;28;19956;-72
2021/06/05 05:00:22;;;;;;;;;;;;;;;;;;5052448;28;20358;-72
2021/06/05 05:02:47;;;;;;;;;;;;;;;;;;5052551;28;19915;-72
2021/06/05 05:05:13;;;;;;;;;;;;;;;;;;5052940;28;19915;-72
2021/06/05 05:07:39;;;;;;;;;;;;;;;;;;5052721;28;20278;-73
2021/06/05 05:10:05;;;;;;;;;;;;;;;;;;5052016;28;19908;-72
2021/06/05 05:12:31;;;;;;;;;;;;;;;;;;5052383;28;19995;-73
2021/06/05 05:14:57;;;;;;;;;;;;;;;;;;5052308;28;19908;-72
2021/06/05 05:17:23;;;;;;;;;;;;;;;;;;5052586;28;19913;-73
2021/06/05 05:19:49;;;;;;;;;;;;;;;;;;5052360;28;20275;-73
2021/06/05 05:22:15;;;;;;;;;;;;;;;;;;5052156;28;20090;-74
2021/06/05 05:24:40;;;;;;;;;;;;;;;;;;5052427;28;20002;-72
2021/06/05 05:27:06;;;;;;;;;;;;;;;;;;5052584;28;19913;-73
2021/06/05 05:29:32;;;;;;;;;;;;;;;;;;5050590;28;19928;-72
2021/06/05 05:31:58;;;;;;;;;;;;;;;;;;5052241;28;20363;-72
2021/06/05 05:34:24;;;;;;;;;;;;;;;;;;5051724;28;19920;-72
2021/06/05 05:36:50;;;;;;;;;;;;;;;;;;5052077;28;19909;-73
2021/06/05 05:39:16;;;;;;;;;;;;;;;;;;5052218;28;20363;-74
2021/06/05 05:41:42;;;;;;;;;;;;;;;;;;5051696;28;19908;-73
2021/06/05 05:44:07;;;;;;;;;;;;;;;;;;5051589;28;19952;-74
2021/06/05 05:46:33;;;;;;;;;;;;;;;;;;5051828;28;19909;-73
2021/06/05 05:48:59;;;;;;;;;;;;;;;;;;5051695;28;19927;-73
2021/06/05 05:51:25;;;;;;;;;;;;;;;;;;5051266;28;19913;-74
2021/06/05 05:53:51;;;;;;;;;;;;;;;;;;5051534;28;20429;-74
2021/06/05 05:56:17;;;;;;;;;;;;;;;;;;5051754;28;20371;-74
2021/06/05 05:58:43;;;;;;;;;;;;;;;;;;5052038;28;20545;-73
2021/06/05 06:01:10;;;;;;;;;;;;;;;;;;5051582;28;19909;-73
2021/06/05 06:03:36;;;;;;;;;;;;;;;;;;5051456;28;19920;-73
2021/06/05 06:06:02;;;;;;;;;;;;;;;;;;5051193;28;19909;-74
2021/06/05 06:08:28;;;;;;;;;;;;;;;;;;5051669;28;20047;-73
2021/06/05 06:10:54;;;;;;;;;;;;;;;;;;5051582;28;20236;-73
2021/06/05 06:13:20;;;;;;;;;;;;;;;;;;5050930;28;20368;-73
2021/06/05 06:15:46;;;;;;;;;;;;;;;;;;5051515;28;19909;-73
2021/06/05 06:18:12;;;;;;;;;;;;;;;;;;5051172;28;19916;-73
2021/06/05 06:20:40;;;;;;;;;;;;;;;;;;5051611;28;19909;-73
2021/06/05 06:23:06;;;;;;;;;;;;;;;;;;5050939;28;20421;-72
2021/06/05 06:25:38;;;;;;;;;;;;;;;;;;5050861;28;19912;-72
2021/06/05 06:28:04;;;;;;;;;;;;;;;;;;5051119;28;20408;-73
2021/06/05 06:30:30;;;;;;;;;;;;;;;;;;5051394;28;19956;-71
2021/06/05 06:32:56;;;;;;;;;;;;;;;;;;5050955;28;19923;-73
2021/06/05 06:35:22;;;;;;;;;;;;;;;;;;5051096;28;19963;-73
2021/06/05 06:37:47;;;;;;;;;;;;;;;;;;5051105;28;20355;-72
2021/06/05 06:40:13;;;;;;;;;;;;;;;;;;5051165;28;19912;-73
2021/06/05 06:42:39;;;;;;;;;;;;;;;;;;5050780;28;20007;-73
2021/06/05 06:45:05;;;;;;;;;;;;;;;;;;5050647;28;20420;-72
2021/06/05 06:47:31;;;;;;;;;;;;;;;;;;5050778;28;19928;-74
2021/06/05 06:49:57;;;;;;;;;;;;;;;;;;5051025;28;19909;-74
2021/06/05 06:52:25;;;;;;;;;;;;;;;;;;5050922;28;19909;-74
2021/06/05 06:54:51;;;;;;;;;;;;;;;;;;5050471;28;19916;-74
2021/06/05 06:57:17;;;;;;;;;;;;;;;;;;5049091;28;20324;-74
2021/06/05 06:59:43;;;;;;;;;;;;;;;;;;5050960;28;19975;-73
2021/06/05 07:02:10;;;;;;;;;;;;;;;;;;5050733;28;19951;-72
2021/06/05 07:04:36;;;;;;;;;;;;;;;;;;5050262;28;19908;-73
2021/06/05 07:07:01;;;;;;;;;;;;;;;;;;5050738;28;19909;-73
2021/06/05 07:09:29;;;;;;;;;;;;;;;;;;5050540;28;19909;-73
2021/06/05 07:11:54;;;;;;;;;;;;;;;;;;5050658;28;19992;-73
2021/06/05 07:14:20;;;;;;;;;;;;;;;;;;5050127;28;20059;-73
2021/06/05 07:16:54;;;;;;;;;;;;;;;;;;5050647;28;19935;-73
2021/06/05 07:19:20;;;;;;;;;;;;;;;;;;5051173;28;19996;-74
2021/06/05 07:21:46;;;;;;;;;;;;;;;;;;5050541;28;20002;-73
2021/06/05 07:24:12;;;;;;;;;;;;;;;;;;5050209;28;20391;-74
2021/06/05 07:26:39;;;;;;;;;;;;;;;;;;5050664;28;19916;-72
2021/06/05 07:29:05;;;;;;;;;;;;;;;;;;5050563;28;20367;-74
2021/06/05 07:31:31;;;;;;;;;;;;;;;;;;5050870;28;19915;-73
2021/06/05 07:33:57;;;;;;;;;;;;;;;;;;5050572;28;19929;-75
2021/06/05 07:36:23;;;;;;;;;;;;;;;;;;5050322;28;20481;-74
2021/06/05 07:38:49;;;;;;;;;;;;;;;;;;5053361;28;19963;-74
2021/06/05 07:41:14;;;;;;;;;;;;;;;;;;5054090;28;19962;-74
2021/06/05 07:43:40;;;;;;;;;;;;;;;;;;5054474;28;20267;-74
2021/06/05 07:46:06;;;;;;;;;;;;;;;;;;5053836;28;20021;-73
2021/06/05 07:48:32;;;;;;;;;;;;;;;;;;5054043;28;19921;-74
2021/06/05 07:50:58;;;;;;;;;;;;;;;;;;5054270;28;20335;-75
2021/06/05 07:53:24;;;;;;;;;;;;;;;;;;5053306;28;19920;-73
2021/06/05 07:55:50;;;;;;;;;;;;;;;;;;5053976;28;19913;-73
2021/06/05 07:58:16;;;;;;;;;;;;;;;;;;5053934;28;19909;-74
2021/06/05 08:00:42;;;;;;;;;;;;;;;;;;5054082;28;19912;-74
2021/06/05 08:03:08;;;;;;;;;;;;;;;;;;5053839;28;19928;-74
2021/06/05 08:05:34;;;;;;;;;;;;;;;;;;5052130;28;20379;-73
2021/06/05 08:08:00;;;;;;;;;;;;;;;;;;5054197;28;19904;-72
2021/06/05 08:10:26;;;;;;;;;;;;;;;;;;5052858;28;19909;-73
2021/06/05 08:12:52;;;;;;;;;;;;;;;;;;5053846;28;19905;-74
2021/06/05 08:15:18;;;;;;;;;;;;;;;;;;5053939;28;19909;-73
2021/06/05 08:17:44;;;;;;;;;;;;;;;;;;5053717;28;19916;-72
2021/06/05 08:20:09;;;;;;;;;;;;;;;;;;5053327;28;19948;-73
2021/06/05 08:22:35;;;;;;;;;;;;;;;;;;5053625;28;19916;-74
2021/06/05 08:25:01;;;;;;;;;;;;;;;;;;5053496;28;19916;-74
2021/06/05 08:27:27;;;;;;;;;;;;;;;;;;5053417;28;19932;-74
2021/06/05 08:29:53;;;;;;;;;;;;;;;;;;5053669;28;19955;-75
2021/06/05 08:32:19;;;;;;;;;;;;;;;;;;5051771;28;20363;-73
2021/06/05 08:34:45;;;;;;;;;;;;;;;;;;5053099;28;19921;-72
2021/06/05 08:37:11;;;;;;;;;;;;;;;;;;5053039;28;19909;-73
2021/06/05 08:39:37;;;;;;;;;;;;;;;;;;5053243;28;19915;-73
2021/06/05 08:42:03;;;;;;;;;;;;;;;;;;5053303;28;19909;-73
2021/06/05 08:44:34;;;;;;;;;;;;;;;;;;5053210;28;19909;-73
2021/06/05 08:47:00;;;;;;;;;;;;;;;;;;5051116;28;19917;-75
2021/06/05 08:49:26;;;;;;;;;;;;;;;;;;5052497;28;19924;-74
2021/06/05 08:51:53;;;;;;;;;;;;;;;;;;5052960;28;19909;-74
2021/06/05 08:54:19;;;;;;;;;;;;;;;;;;5052713;28;20367;-75
2021/06/05 08:56:46;;;;;;;;;;;;;;;;;;5052670;28;19920;-75
2021/06/05 08:59:11;;;;;;;;;;;;;;;;;;5052943;28;20003;-73
2021/06/05 09:01:37;;;;;;;;;;;;;;;;;;5052909;28;20003;-74
2021/06/05 09:04:03;;;;;;;;;;;;;;;;;;5052463;28;19931;-74
2021/06/05 09:06:29;;;;;;;;;;;;;;;;;;5052842;28;20073;-77
2021/06/05 09:08:55;;;;;;;;;;;;;;;;;;5052884;28;19909;-73
2021/06/05 09:11:21;;;;;;;;;;;;;;;;;;5052631;28;19924;-73
2021/06/05 09:13:47;;;;;;;;;;;;;;;;;;5052451;28;19924;-74
2021/06/05 09:16:13;;;;;;;;;;;;;;;;;;5051971;28;19919;-75
2021/06/05 09:18:39;;;;;;;;;;;;;;;;;;5052442;28;19912;-74
2021/06/05 09:21:04;;;;;;;;;;;;;;;;;;5052283;28;20015;-74
2021/06/05 09:23:30;;;;;;;;;;;;;;;;;;5050984;28;19912;-73
2021/06/05 09:25:56;;;;;;;;;;;;;;;;;;5051817;28;20326;-73
2021/06/05 09:28:22;;;;;;;;;;;;;;;;;;5052349;28;20247;-74
2021/06/05 09:30:48;;;;;;;;;;;;;;;;;;5052142;28;19909;-74
2021/06/05 09:33:14;;;;;;;;;;;;;;;;;;5052187;28;20387;-73
2021/06/05 09:35:42;;;;;;;;;;;;;;;;;;5052197;28;19971;-74
2021/06/05 09:38:08;;;;;;;;;;;;;;;;;;5051890;28;19954;-74
2021/06/05 09:40:35;;;;;;;;;;;;;;;;;;5051663;28;19991;-72
2021/06/05 09:43:01;;;;;;;;;;;;;;;;;;5052140;28;19909;-74
2021/06/05 09:45:27;;;;;;;;;;;;;;;;;;5052356;28;20272;-74
2021/06/05 09:47:53;;;;;;;;;;;;;;;;;;5051299;28;20367;-75
2021/06/05 09:50:18;;;;;;;;;;;;;;;;;;5052200;28;19920;-75
2021/06/05 09:52:44;;;;;;;;;;;;;;;;;;5051862;28;19919;-73
2021/06/05 09:55:11;;;;;;;;;;;;;;;;;;5051107;28;21309;-75
2021/06/05 09:57:37;;;;;;;;;;;;;;;;;;5051209;28;19983;-75
2021/06/05 10:00:03;;;;;;;;;;;;;;;;;;5050929;28;19974;-74
2021/06/05 10:02:29;;;;;;;;;;;;;;;;;;5051600;28;19909;-74
2021/06/05 10:04:55;;;;;;;;;;;;;;;;;;5051808;28;19909;-72
2021/06/05 10:07:20;;;;;;;;;;;;;;;;;;5051713;28;19909;-75
2021/06/05 10:09:46;;;;;;;;;;;;;;;;;;5051315;28;19912;-73
2021/06/05 10:12:12;;;;;;;;;;;;;;;;;;5051194;28;19909;-73
2021/06/05 10:14:38;;;;;;;;;;;;;;;;;;5051369;28;20008;-73
2021/06/05 10:17:04;;;;;;;;;;;;;;;;;;5051233;28;20062;-72
2021/06/05 10:19:30;;;;;;;;;;;;;;;;;;5051410;28;20493;-73
2021/06/05 10:21:56;;;;;;;;;;;;;;;;;;5050947;28;19909;-73
2021/06/05 10:24:22;;;;;;;;;;;;;;;;;;5051250;28;20374;-73
2021/06/05 10:26:48;;;;;;;;;;;;;;;;;;5050816;28;19978;-74
2021/06/05 10:29:13;;;;;;;;;;;;;;;;;;5051333;28;20009;-74
2021/06/05 10:31:39;;;;;;;;;;;;;;;;;;5051166;28;19920;-73
2021/06/05 10:34:05;;;;;;;;;;;;;;;;;;5050725;28;19990;-74
2021/06/05 10:36:31;;;;;;;;;;;;;;;;;;5051429;28;19909;-73
2021/06/05 10:38:57;;;;;;;;;;;;;;;;;;5050832;28;19912;-74
2021/06/05 10:41:23;;;;;;;;;;;;;;;;;;5051089;28;19909;-74
2021/06/05 10:43:49;;;;;;;;;;;;;;;;;;5050998;28;20272;-74
2021/06/05 10:46:15;;;;;;;;;;;;;;;;;;5050995;28;20422;-74
2021/06/05 10:48:40;;;;;;;;;;;;;;;;;;5050519;28;20051;-75
2021/06/05 10:51:08;;;;;;;;;;;;;;;;;;5050993;28;19915;-75
2021/06/05 10:53:34;;;;;;;;;;;;;;;;;;5049405;28;19917;-73
2021/06/05 10:56:00;;;;;;;;;;;;;;;;;;5050668;28;19932;-74
2021/06/05 10:58:26;;;;;;;;;;;;;;;;;;5049140;28;19909;-73
2021/06/05 11:00:52;;;;;;;;;;;;;;;;;;5050749;28;19909;-73
2021/06/05 11:03:17;;;;;;;;;;;;;;;;;;5051036;28;19909;-74
2021/06/05 11:05:44;;;;;;;;;;;;;;;;;;5050750;28;19909;-74
2021/06/05 11:08:16;;;;;;;;;;;;;;;;;;5050505;28;20273;-75
2021/06/05 11:10:42;;;;;;;;;;;;;;;;;;5050780;28;19952;-73
2021/06/05 11:13:08;;;;;;;;;;;;;;;;;;5054342;28;19972;-72
2021/06/05 11:15:34;;;;;;;;;;;;;;;;;;5054974;28;20275;-74
2021/06/05 11:18:00;;;;;;;;;;;;;;;;;;5053220;28;19955;-72
2021/06/05 11:20:26;;;;;;;;;;;;;;;;;;5054797;28;19905;-73
2021/06/05 11:22:52;;;;;;;;;;;;;;;;;;5054859;28;20275;-73
2021/06/05 11:25:17;;;;;;;;;;;;;;;;;;5054617;28;20008;-74
2021/06/05 11:27:43;;;;;;;;;;;;;;;;;;5054356;28;20294;-72
2021/06/05 11:30:11;;;;;;;;;;;;;;;;;;5054448;28;19966;-73
2021/06/05 11:32:37;;;;;;;;;;;;;;;;;;5053118;28;19923;-74
2021/06/05 11:35:06;;;;;;;;;;;;;;;;;;5054120;28;19917;-74
2021/06/05 11:37:32;;;;;;;;;;;;;;;;;;5054212;28;19961;-73
2021/06/05 11:39:58;;;;;;;;;;;;;;;;;;5054377;28;20438;-74
2021/06/05 11:42:24;;;;;;;;;;;;;;;;;;5054070;28;20363;-73
2021/06/05 11:44:50;;;;;;;;;;;;;;;;;;5054501;28;20343;-74
2021/06/05 11:47:16;;;;;;;;;;;;;;;;;;5054350;28;19924;-75
2021/06/05 11:49:42;;;;;;;;;;;;;;;;;;5054101;28;20396;-74
2021/06/05 11:52:08;;;;;;;;;;;;;;;;;;5054279;28;20102;-74
2021/06/05 11:54:34;;;;;;;;;;;;;;;;;;5054096;28;19917;-72
2021/06/05 11:57:00;;;;;;;;;;;;;;;;;;5053681;28;19920;-72
2021/06/05 11:59:25;;;;;;;;;;;;;;;;;;5053607;28;20017;-74
2021/06/05 12:01:51;;;;;;;;;;;;;;;;;;5054413;28;20385;-74
2021/06/05 12:04:17;;;;;;;;;;;;;;;;;;5054003;28;20398;-73
2021/06/05 12:06:44;;;;;;;;;;;;;;;;;;5053823;28;19916;-74
2021/06/05 12:09:11;;;;;;;;;;;;;;;;;;5051814;28;20359;-73
2021/06/05 12:11:37;;;;;;;;;;;;;;;;;;5052500;28;19972;-73
2021/06/05 12:14:03;;;;;;;;;;;;;;;;;;5053716;28;19917;-73
2021/06/05 12:16:29;;;;;;;;;;;;;;;;;;5053705;28;19909;-72
2021/06/05 12:18:55;;;;;;;;;;;;;;;;;;5053606;28;20074;-73
2021/06/05 12:21:21;;;;;;;;;;;;;;;;;;5053394;28;19908;-73
2021/06/05 12:23:47;;;;;;;;;;;;;;;;;;5053031;28;19912;-73
2021/06/05 12:26:13;;;;;;;;;;;;;;;;;;5053487;28;19909;-73
2021/06/05 12:28:38;;;;;;;;;;;;;;;;;;5053290;28;19963;-73
2021/06/05 12:31:04;;;;;;;;;;;;;;;;;;5053486;28;19913;-73
2021/06/05 12:33:30;;;;;;;;;;;;;;;;;;5053385;28;19979;-73
2021/06/05 12:35:56;;;;;;;;;;;;;;;;;;5053587;28;19919;-74
2021/06/05 12:38:22;;;;;;;;;;;;;;;;;;5053065;28;19909;-74
2021/06/05 12:40:48;;;;;;;;;;;;;;;;;;5052083;28;19908;-73
2021/06/05 12:43:14;;;;;;;;;;;;;;;;;;5053640;28;19909;-74
2021/06/05 12:45:40;;;;;;;;;;;;;;;;;;5053269;28;19909;-74
2021/06/05 12:48:06;;;;;;;;;;;;;;;;;;5052506;28;20286;-74
2021/06/05 12:50:32;;;;;;;;;;;;;;;;;;5052912;28;19916;-74
2021/06/05 12:52:58;;;;;;;;;;;;;;;;;;5053107;28;19923;-74
2021/06/05 12:55:24;;;;;;;;;;;;;;;;;;5052764;28;20397;-74
2021/06/05 12:57:51;;;;;;;;;;;;;;;;;;5052838;28;19995;-74
2021/06/05 13:00:17;;;;;;;;;;;;;;;;;;5052933;28;20066;-74
2021/06/05 13:02:43;;;;;;;;;;;;;;;;;;5053200;28;19996;-74
2021/06/05 13:05:09;;;;;;;;;;;;;;;;;;5052786;28;20150;-72
2021/06/05 13:07:35;;;;;;;;;;;;;;;;;;5052909;28;20363;-72
2021/06/05 13:10:01;;;;;;;;;;;;;;;;;;5050924;28;19909;-72
2021/06/05 13:12:26;;;;;;;;;;;;;;;;;;5050955;28;19909;-73
2021/06/05 13:14:52;;;;;;;;;;;;;;;;;;5051364;28;20011;-74
2021/06/05 13:17:18;;;;;;;;;;;;;;;;;;5052751;28;20398;-73
2021/06/05 13:19:44;;;;;;;;;;;;;;;;;;5052341;28;19960;-74
2021/06/05 13:22:11;;;;;;;;;;;;;;;;;;5052329;28;19909;-74
2021/06/05 13:24:37;;;;;;;;;;;;;;;;;;5052375;28;19966;-74
2021/06/05 13:27:03;;;;;;;;;;;;;;;;;;5052524;28;19917;-74
2021/06/05 13:29:29;;;;;;;;;;;;;;;;;;5052263;28;19908;-73
2021/06/05 13:31:55;;;;;;;;;;;;;;;;;;5052420;28;20212;-74
2021/06/05 13:34:21;;;;;;;;;;;;;;;;;;5051810;28;20304;-74
2021/06/05 13:36:47;;;;;;;;;;;;;;;;;;5052185;28;20000;-74
2021/06/05 13:39:13;;;;;;;;;;;;;;;;;;5052090;28;19909;-74
2021/06/05 13:41:39;;;;;;;;;;;;;;;;;;5052232;28;19909;-74
2021/06/05 13:44:04;;;;;;;;;;;;;;;;;;5052070;28;19975;-74
2021/06/05 13:46:30;;;;;;;;;;;;;;;;;;5052184;28;20329;-74
2021/06/05 13:48:56;;;;;;;;;;;;;;;;;;5051501;28;20011;-74
2021/06/05 13:51:22;;;;;;;;;;;;;;;;;;5051711;28;19909;-73
2021/06/05 13:53:48;;;;;;;;;;;;;;;;;;5050655;28;19973;-74
2021/06/05 13:56:14;;;;;;;;;;;;;;;;;;5052149;28;19913;-74
2021/06/05 13:58:41;;;;;;;;;;;;;;;;;;5051545;28;19905;-74
2021/06/05 14:01:07;;;;;;;;;;;;;;;;;;5051372;28;20379;-73
2021/06/05 14:03:35;;;;;;;;;;;;;;;;;;5051983;28;19994;-74
2021/06/05 14:06:01;;;;;;;;;;;;;;;;;;5052171;28;19908;-74
2021/06/05 14:08:27;;;;;;;;;;;;;;;;;;5051277;28;19904;-74
2021/06/05 14:10:53;;;;;;;;;;;;;;;;;;5050972;28;20355;-73
2021/06/05 14:13:19;;;;;;;;;;;;;;;;;;5051611;28;19920;-74
2021/06/05 14:15:45;;;;;;;;;;;;;;;;;;5051394;28;20362;-74
2021/06/05 14:18:11;;;;;;;;;;;;;;;;;;5051484;28;19909;-74
2021/06/05 14:20:37;;;;;;;;;;;;;;;;;;5051243;28;19908;-74
2021/06/05 14:23:02;;;;;;;;;;;;;;;;;;5051080;28;19913;-74
2021/06/05 14:25:28;;;;;;;;;;;;;;;;;;5051714;28;19908;-73
2021/06/05 14:27:54;;;;;;;;;;;;;;;;;;5050047;28;20282;-73
2021/06/05 14:30:20;;;;;;;;;;;;;;;;;;5051133;28;19909;-74
2021/06/05 14:32:46;;;;;;;;;;;;;;;;;;5051121;28;20359;-73
2021/06/05 14:35:12;;;;;;;;;;;;;;;;;;5050777;28;20374;-74
2021/06/05 14:37:38;;;;;;;;;;;;;;;;;;5051144;28;19913;-74
2021/06/05 14:40:04;;;;;;;;;;;;;;;;;;5051238;28;19912;-74
2021/06/05 14:42:30;;;;;;;;;;;;;;;;;;5051036;28;19909;-74
2021/06/05 14:44:56;;;;;;;;;;;;;;;;;;5050716;28;20356;-72
2021/06/05 14:47:22;;;;;;;;;;;;;;;;;;5050420;28;19962;-74
2021/06/05 14:49:48;;;;;;;;;;;;;;;;;;5050877;28;19966;-74
2021/06/05 14:52:16;;;;;;;;;;;;;;;;;;5050702;28;20019;-74
2021/06/05 14:54:42;;;;;;;;;;;;;;;;;;5050947;28;19968;-73
2021/06/05 14:57:08;;;;;;;;;;;;;;;;;;5049034;28;19956;-74
2021/06/05 14:59:34;;;;;;;;;;;;;;;;;;5051070;28;20375;-73
2021/06/05 15:01:59;;;;;;;;;;;;;;;;;;5050673;28;19915;-73
2021/06/05 15:04:25;;;;;;;;;;;;;;;;;;5050815;28;20050;-73
2021/06/05 15:06:51;;;;;;;;;;;;;;;;;;5050543;28;19940;-76
2021/06/05 15:09:17;;;;;;;;;;;;;;;;;;5050703;28;19909;-73
2021/06/05 15:11:43;;;;;;;;;;;;;;;;;;5050655;28;19909;-74
2021/06/05 15:14:09;;;;;;;;;;;;;;;;;;5050476;28;20109;-75
2021/06/05 15:16:35;;;;;;;;;;;;;;;;;;5050798;28;19916;-75
2021/06/05 15:19:01;;;;;;;;;;;;;;;;;;5050310;28;19931;-73
2021/06/05 15:21:26;;;;;;;;;;;;;;;;;;5050200;28;19909;-74
2021/06/05 15:23:52;;;;;;;;;;;;;;;;;;5050849;28;19913;-74
2021/06/05 15:26:18;;;;;;;;;;;;;;;;;;5050956;28;20279;-73
2021/06/05 15:28:44;;;;;;;;;;;;;;;;;;5050613;28;19919;-73
2021/06/05 15:31:10;;;;;;;;;;;;;;;;;;5050368;28;19909;-73
2021/06/05 15:33:36;;;;;;;;;;;;;;;;;;5050488;28;19960;-73
2021/06/05 15:36:02;;;;;;;;;;;;;;;;;;5050392;28;19963;-75
2021/06/05 15:38:28;;;;;;;;;;;;;;;;;;5049084;28;19912;-74
2021/06/05 15:40:54;;;;;;;;;;;;;;;;;;5050527;28;20371;-74
2021/06/05 15:43:19;;;;;;;;;;;;;;;;;;5049961;28;20050;-74
2021/06/05 15:45:46;;;;;;;;;;;;;;;;;;5050888;28;19909;-73
2021/06/05 15:48:12;;;;;;;;;;;;;;;;;;5050698;28;20394;-74
2021/06/05 15:50:37;;;;;;;;;;;;;;;;;;5050452;28;19913;-73
2021/06/05 15:53:03;;;;;;;;;;;;;;;;;;5049939;28;19995;-74
2021/06/05 15:55:29;;;;;;;;;;;;;;;;;;5050631;28;19919;-74
2021/06/05 15:57:55;;;;;;;;;;;;;;;;;;5050273;28;20310;-74
2021/06/05 16:00:21;;;;;;;;;;;;;;;;;;5052812;28;19909;-74
2021/06/05 16:02:47;;;;;;;;;;;;;;;;;;5053967;28;20351;-74
2021/06/05 16:05:13;;;;;;;;;;;;;;;;;;5052493;28;20397;-74
2021/06/05 16:07:39;;;;;;;;;;;;;;;;;;5053961;28;19909;-73
2021/06/05 16:10:05;;;;;;;;;;;;;;;;;;5053882;28;19948;-73
2021/06/05 16:12:31;;;;;;;;;;;;;;;;;;5053683;28;19952;-74
2021/06/05 16:14:57;;;;;;;;;;;;;;;;;;5053626;28;19970;-74
2021/06/05 16:17:23;;;;;;;;;;;;;;;;;;5053715;28;20143;-74
2021/06/05 16:19:49;;;;;;;;;;;;;;;;;;5053524;28;19917;-73
2021/06/05 16:22:15;;;;;;;;;;;;;;;;;;5053314;28;20008;-73
2021/06/05 16:24:41;;;;;;;;;;;;;;;;;;5053725;28;19932;-73
2021/06/05 16:27:07;;;;;;;;;;;;;;;;;;5053448;28;19970;-74
2021/06/05 16:29:33;;;;;;;;;;;;;;;;;;5053431;28;19917;-74
2021/06/05 16:31:59;;;;;;;;;;;;;;;;;;5053009;28;20306;-74
2021/06/05 16:34:25;;;;;;;;;;;;;;;;;;5053159;28;19921;-73
2021/06/05 16:36:51;;;;;;;;;;;;;;;;;;5051484;28;19921;-72